Time;durP1;ratioP1;P1;durP2;ratioP2;P2;SDS_P1;SDS_P2;PMS_P1;PMS_P2;Temp;Humidity;BMP_temperature;BMP_pressure;BME280_temperature;BME280_humidity;BME280_pressure;Samples;Min_cycle;Max_cycle;Signal;HPM_P1;HPM_P2
2021/11/09 00:01:41;;;;;;;30.25;15.13;;;;;;;;;;5072533;28;20220;-83
2021/11/09 00:04:09;;;;;;;27.63;13.52;;;;;;;;;;5074504;28;20547;-79
2021/11/09 00:06:40;;;;;;;19.00;10.30;;;;;;;;;;5074426;28;20197;-81
2021/11/09 00:09:10;;;;;;;23.80;9.40;;;;;;;;;;5072284;28;21551;-85
2021/11/09 00:11:38;;;;;;;20.73;8.90;;;;;;;;;;5067451;28;20317;-83
2021/11/09 00:14:05;;;;;;;15.60;8.07;;;;;;;;;;5069690;28;20201;-81
2021/11/09 00:16:33;;;;;;;18.58;8.20;;;;;;;;;;5070712;28;20198;-82
2021/11/09 00:19:01;;;;;;;21.48;7.85;;;;;;;;;;5071954;28;20288;-82
2021/11/09 00:21:30;;;;;;;17.05;7.90;;;;;;;;;;5072014;28;20217;-82
2021/11/09 00:24:00;;;;;;;16.83;6.97;;;;;;;;;;5072390;28;20289;-82
2021/11/09 00:26:28;;;;;;;16.48;8.75;;;;;;;;;;5072780;28;20531;-81
2021/11/09 00:28:55;;;;;;;25.83;11.80;;;;;;;;;;5072821;28;20190;-82
2021/11/09 00:31:22;;;;;;;19.60;10.65;;;;;;;;;;5072132;28;20209;-83
2021/11/09 00:33:50;;;;;;;21.17;10.07;;;;;;;;;;5067448;28;20214;-85
2021/11/09 00:36:17;;;;;;;20.85;9.05;;;;;;;;;;5069010;28;20212;-83
2021/11/09 00:38:46;;;;;;;17.92;8.60;;;;;;;;;;5071397;28;20194;-84
2021/11/09 00:41:13;;;;;;;23.40;7.95;;;;;;;;;;5071108;28;20218;-80
2021/11/09 00:43:41;;;;;;;16.80;8.90;;;;;;;;;;5071875;28;20194;-81
2021/11/09 00:46:08;;;;;;;17.80;9.30;;;;;;;;;;5072123;28;20202;-79
2021/11/09 00:48:35;;;;;;;19.73;8.40;;;;;;;;;;5075166;28;20194;-84
2021/11/09 00:51:02;;;;;;;21.23;8.98;;;;;;;;;;5074588;28;20218;-85
2021/11/09 00:53:29;;;;;;;15.30;8.52;;;;;;;;;;5073757;28;20229;-80
2021/11/09 00:55:58;;;;;;;21.10;9.90;;;;;;;;;;5067640;28;20214;-84
2021/11/09 00:58:25;;;;;;;15.20;8.55;;;;;;;;;;5069205;28;20200;-81
2021/11/09 01:00:52;;;;;;;17.25;7.65;;;;;;;;;;5072228;28;20646;-83
2021/11/09 01:03:20;;;;;;;17.20;9.50;;;;;;;;;;5072143;28;20236;-85
2021/11/09 01:05:47;;;;;;;16.77;8.20;;;;;;;;;;5072487;28;20604;-84
2021/11/09 01:08:16;;;;;;;16.65;8.95;;;;;;;;;;5072646;28;20198;-81
2021/11/09 01:10:45;;;;;;;14.77;9.25;;;;;;;;;;5073860;28;20288;-82
2021/11/09 01:13:15;;;;;;;19.58;8.55;;;;;;;;;;5074816;28;20222;-79
2021/11/09 01:15:48;;;;;;;21.60;9.55;;;;;;;;;;5071292;28;20554;-83
2021/11/09 01:18:15;;;;;;;21.65;9.93;;;;;;;;;;5067462;28;22235;-82
2021/11/09 01:20:43;;;;;;;15.25;8.05;;;;;;;;;;5068421;28;20198;-82
2021/11/09 01:23:11;;;;;;;15.57;8.00;;;;;;;;;;5071574;28;20209;-81
2021/11/09 01:25:38;;;;;;;26.83;8.40;;;;;;;;;;5071768;28;20194;-80
2021/11/09 01:28:06;;;;;;;28.13;10.55;;;;;;;;;;5073132;28;20891;-77
2021/11/09 01:30:35;;;;;;;15.40;8.13;;;;;;;;;;5070753;28;20301;-83
2021/11/09 01:33:02;;;;;;;20.13;9.00;;;;;;;;;;5068883;28;20571;-83
2021/11/09 01:35:31;;;;;;;19.95;7.85;;;;;;;;;;5070433;28;20193;-80
2021/11/09 01:37:58;;;;;;;13.40;8.13;;;;;;;;;;5071767;28;20197;-82
2021/11/09 01:40:26;;;;;;;17.55;8.50;;;;;;;;;;5069828;28;20190;-80
2021/11/09 01:42:55;;;;;;;24.88;8.85;;;;;;;;;;5070205;28;20218;-80
2021/11/09 01:45:22;;;;;;;20.63;8.50;;;;;;;;;;5071108;28;20194;-79
2021/11/09 01:47:51;;;;;;;15.48;7.57;;;;;;;;;;5069414;28;20595;-79
2021/11/09 01:50:19;;;;;;;16.60;7.80;;;;;;;;;;5067861;28;20185;-81
2021/11/09 01:52:46;;;;;;;17.88;8.02;;;;;;;;;;5071046;28;20675;-81
2021/11/09 01:55:17;;;;;;;25.63;7.47;;;;;;;;;;5070709;28;20190;-79
2021/11/09 01:57:50;;;;;;;17.10;7.57;;;;;;;;;;5072877;28;20190;-83
2021/11/09 02:00:21;;;;;;;14.02;7.07;;;;;;;;;;5075933;28;20204;-80
2021/11/09 02:02:59;;;;;;;14.77;7.45;;;;;;;;;;5060583;28;20223;-80
2021/11/09 02:05:28;;;;;;;18.30;7.95;;;;;;;;;;5068722;28;21502;-79
2021/11/09 02:07:56;;;;;;;19.98;7.05;;;;;;;;;;5071156;28;20191;-80
2021/11/09 02:10:25;;;;;;;15.45;7.40;;;;;;;;;;5073777;28;20200;-80
2021/11/09 02:12:52;;;;;;;16.67;7.70;;;;;;;;;;5074076;28;20225;-78
2021/11/09 02:15:20;;;;;;;12.10;7.75;;;;;;;;;;5074977;28;20198;-82
2021/11/09 02:17:48;;;;;;;15.30;7.72;;;;;;;;;;5075151;28;20225;-81
2021/11/09 02:20:18;;;;;;;11.02;6.82;;;;;;;;;;5071906;28;20198;-79
2021/11/09 02:22:47;;;;;;;24.73;7.20;;;;;;;;;;5070765;28;20211;-83
2021/11/09 02:25:16;;;;;;;18.02;6.53;;;;;;;;;;5072057;28;20284;-82
2021/11/09 02:27:44;;;;;;;13.23;6.93;;;;;;;;;;5074703;28;20186;-82
2021/11/09 02:30:13;;;;;;;16.63;6.28;;;;;;;;;;5076370;28;20208;-82
2021/11/09 02:32:40;;;;;;;18.35;7.55;;;;;;;;;;5074315;28;20226;-83
2021/11/09 02:35:08;;;;;;;15.23;7.20;;;;;;;;;;5071625;28;20206;-85
2021/11/09 02:37:36;;;;;;;15.57;8.00;;;;;;;;;;5068761;28;20201;-83
2021/11/09 02:40:05;;;;;;;16.70;7.63;;;;;;;;;;5072661;28;20197;-82
2021/11/09 02:42:33;;;;;;;13.15;8.40;;;;;;;;;;5074740;28;20623;-82
2021/11/09 02:45:06;;;;;;;18.40;6.80;;;;;;;;;;5073283;28;20197;-82
2021/11/09 02:47:43;;;;;;;14.80;6.90;;;;;;;;;;5074156;28;20298;-82
2021/11/09 02:50:12;;;;;;;15.55;7.63;;;;;;;;;;5075045;28;20202;-79
2021/11/09 02:52:47;;;;;;;22.55;8.43;;;;;;;;;;5070027;28;20300;-78
2021/11/09 02:55:18;;;;;;;19.02;8.25;;;;;;;;;;5071578;28;20196;-83
2021/11/09 02:57:50;;;;;;;21.65;8.95;;;;;;;;;;5074772;28;20193;-84
2021/11/09 03:00:23;;;;;;;16.30;7.25;;;;;;;;;;5074160;28;20212;-81
2021/11/09 03:02:53;;;;;;;17.58;7.10;;;;;;;;;;5073584;28;20697;-83
2021/11/09 03:05:26;;;;;;;16.55;8.32;;;;;;;;;;5075164;28;20209;-82
2021/11/09 03:07:56;;;;;;;15.20;7.28;;;;;;;;;;5075652;28;20662;-82
2021/11/09 03:10:29;;;;;;;16.25;7.30;;;;;;;;;;5075460;28;20190;-84
2021/11/09 03:12:57;;;;;;;15.65;7.55;;;;;;;;;;5073848;28;20284;-81
2021/11/09 03:15:27;;;;;;;16.10;7.18;;;;;;;;;;5069005;28;20548;-85
2021/11/09 03:17:57;;;;;;;12.10;6.82;;;;;;;;;;5072056;28;20654;-81
2021/11/09 03:20:30;;;;;;;18.48;6.90;;;;;;;;;;5071784;28;20225;-85
2021/11/09 03:39:59;;;;;;;18.60;7.28;;;;;;;;;;5071880;28;20588;-83
2021/11/09 03:44:47;;;;;;;13.65;6.50;;;;;;;;;;5072269;28;20288;-82
2021/11/09 03:47:17;;;;;;;21.85;6.75;;;;;;;;;;5072648;28;20527;-78
2021/11/09 03:49:45;;;;;;;14.13;6.20;;;;;;;;;;5072326;28;20555;-78
2021/11/09 03:52:17;;;;;;;11.27;5.97;;;;;;;;;;5074796;28;20591;-81
2021/11/09 03:54:47;;;;;;;17.50;7.20;;;;;;;;;;5074584;28;20230;-79
2021/11/09 03:57:19;;;;;;;17.75;6.97;;;;;;;;;;5074081;28;20535;-81
2021/11/09 04:03:00;;;;;;;12.25;7.05;;;;;;;;;;4994235;28;20227;-80
2021/11/09 04:05:34;;;;;;;13.57;5.97;;;;;;;;;;4986997;28;20518;-79
2021/11/09 04:08:05;;;;;;;14.55;6.47;;;;;;;;;;5051848;28;20286;-78
2021/11/09 04:10:40;;;;;;;17.92;7.10;;;;;;;;;;5051855;28;20651;-78
2021/11/09 04:13:23;;;;;;;13.20;6.50;;;;;;;;;;5054898;28;20573;-79
2021/11/09 04:16:07;;;;;;;19.77;7.05;;;;;;;;;;5068048;28;20197;-79
2021/11/09 04:18:41;;;;;;;9.55;6.75;;;;;;;;;;5069072;28;20212;-78
2021/11/09 04:21:16;;;;;;;16.05;7.65;;;;;;;;;;5071220;28;20229;-79
2021/11/09 04:29:19;;;;;;;13.30;6.55;;;;;;;;;;5071828;28;20209;-81
2021/11/09 04:32:04;;;;;;;13.02;7.00;;;;;;;;;;5074008;28;20239;-78
2021/11/09 04:53:49;;;;;;;13.90;6.32;;;;;;;;;;5114907;28;20192;-78
2021/11/09 05:01:52;;;;;;;17.00;7.65;;;;;;;;;;5129294;28;20216;-79
2021/11/09 05:09:45;;;;;;;13.95;7.45;;;;;;;;;;5113086;28;20212;-79
2021/11/09 05:12:13;;;;;;;16.88;6.80;;;;;;;;;;5112614;28;20274;-78
2021/11/09 05:14:40;;;;;;;15.35;7.70;;;;;;;;;;5114497;27;20632;-78
2021/11/09 05:17:07;;;;;;;14.93;7.45;;;;;;;;;;5117036;27;20180;-79
2021/11/09 05:19:37;;;;;;;19.70;7.05;;;;;;;;;;5128620;27;20196;-79
2021/11/09 05:22:06;;;;;;;10.60;6.25;;;;;;;;;;5129167;27;20266;-79
2021/11/09 05:24:33;;;;;;;16.95;8.35;;;;;;;;;;5129737;27;20527;-79
2021/11/09 05:27:01;;;;;;;15.32;7.70;;;;;;;;;;5128184;27;20196;-80
2021/11/09 05:29:28;;;;;;;20.42;8.02;;;;;;;;;;5111405;28;20209;-79
2021/11/09 05:31:58;;;;;;;18.23;8.05;;;;;;;;;;5111154;28;20224;-80
2021/11/09 05:34:29;;;;;;;17.67;8.00;;;;;;;;;;5110723;28;20199;-78
2021/11/09 05:36:56;;;;;;;22.02;8.32;;;;;;;;;;5114054;27;20192;-79
2021/11/09 05:39:32;;;;;;;15.55;7.32;;;;;;;;;;5115667;28;20196;-79
2021/11/09 05:42:03;;;;;;;13.20;8.13;;;;;;;;;;5128371;27;20208;-79
2021/11/09 05:44:31;;;;;;;19.70;8.20;;;;;;;;;;5128928;27;20200;-80
2021/11/09 05:46:58;;;;;;;22.08;8.40;;;;;;;;;;5129165;27;20207;-80
2021/11/09 05:49:27;;;;;;;26.38;7.80;;;;;;;;;;5127841;27;20224;-78
2021/11/09 05:54:37;;;;;;;15.80;7.60;;;;;;;;;;5111089;28;20192;-79
2021/11/09 05:57:05;;;;;;;21.85;7.82;;;;;;;;;;5110904;28;20274;-80
2021/11/09 05:59:32;;;;;;;11.88;6.50;;;;;;;;;;5114073;27;20191;-78
2021/11/09 06:01:59;;;;;;;17.95;8.77;;;;;;;;;;5100912;28;20571;-81
2021/11/09 06:04:26;;;;;;;12.57;7.40;;;;;;;;;;5093872;28;20193;-79
2021/11/09 06:06:54;;;;;;;18.25;8.30;;;;;;;;;;5093848;28;20280;-78
2021/11/09 06:09:21;;;;;;;18.80;7.45;;;;;;;;;;5094648;28;20678;-78
2021/11/09 06:11:50;;;;;;;17.83;7.07;;;;;;;;;;5093841;28;20544;-80
2021/11/09 06:14:17;;;;;;;13.35;7.30;;;;;;;;;;5096420;28;20611;-78
2021/11/09 06:16:45;;;;;;;17.58;8.43;;;;;;;;;;5096412;28;20194;-79
2021/11/09 06:19:13;;;;;;;15.15;8.90;;;;;;;;;;5096376;28;20650;-79
2021/11/09 06:21:40;;;;;;;12.68;7.85;;;;;;;;;;5099221;28;20227;-78
2021/11/09 06:24:07;;;;;;;13.32;8.80;;;;;;;;;;5099634;28;20180;-79
2021/11/09 06:26:36;;;;;;;19.02;8.38;;;;;;;;;;5093389;28;20292;-80
2021/11/09 06:29:06;;;;;;;18.13;8.25;;;;;;;;;;5093828;28;20197;-78
2021/11/09 06:31:33;;;;;;;18.05;8.02;;;;;;;;;;5094083;28;20300;-79
2021/11/09 06:34:01;;;;;;;11.57;8.25;;;;;;;;;;5094009;28;20194;-80
2021/11/09 06:36:28;;;;;;;13.70;7.93;;;;;;;;;;5075381;28;20198;-78
2021/11/09 06:38:56;;;;;;;19.58;8.50;;;;;;;;;;5075701;28;20194;-80
2021/11/09 06:41:23;;;;;;;15.73;8.57;;;;;;;;;;5075262;28;20347;-78
2021/11/09 06:43:50;;;;;;;18.85;7.95;;;;;;;;;;5095420;28;20202;-78
2021/11/09 06:46:19;;;;;;;18.48;7.75;;;;;;;;;;5099069;28;20512;-80
2021/11/09 06:48:47;;;;;;;16.05;7.70;;;;;;;;;;5081384;28;20213;-79
2021/11/09 06:51:14;;;;;;;22.08;8.52;;;;;;;;;;5072611;28;20230;-81
2021/11/09 06:53:42;;;;;;;18.50;7.57;;;;;;;;;;5073499;28;20201;-80
2021/11/09 06:56:09;;;;;;;12.38;7.70;;;;;;;;;;5091079;28;20204;-81
2021/11/09 06:58:36;;;;;;;18.70;7.25;;;;;;;;;;5075716;28;20209;-78
2021/11/09 07:01:04;;;;;;;16.52;7.82;;;;;;;;;;5096296;28;20317;-81
2021/11/09 07:03:33;;;;;;;17.77;7.82;;;;;;;;;;5100771;28;20218;-81
2021/11/09 07:06:04;;;;;;;17.08;7.65;;;;;;;;;;5112942;28;20188;-81
2021/11/09 07:08:31;;;;;;;18.83;7.93;;;;;;;;;;5113560;28;20204;-79
2021/11/09 07:10:59;;;;;;;14.90;7.10;;;;;;;;;;5102437;28;20221;-78
2021/11/09 07:13:27;;;;;;;14.85;7.50;;;;;;;;;;5091785;28;20828;-81
2021/11/09 07:15:54;;;;;;;16.58;8.05;;;;;;;;;;5093271;28;20189;-80
2021/11/09 07:18:21;;;;;;;17.25;7.63;;;;;;;;;;5089803;28;20186;-80
2021/11/09 07:20:50;;;;;;;13.60;8.00;;;;;;;;;;5074848;28;20209;-80
2021/11/09 07:23:17;;;;;;;12.90;8.27;;;;;;;;;;5089787;28;20196;-80
2021/11/09 07:25:45;;;;;;;16.30;7.43;;;;;;;;;;5098912;28;20184;-80
2021/11/09 07:28:12;;;;;;;15.73;7.03;;;;;;;;;;5092799;28;20201;-78
2021/11/09 07:30:43;;;;;;;20.60;7.95;;;;;;;;;;5091881;28;20236;-76
2021/11/09 07:33:10;;;;;;;20.52;8.52;;;;;;;;;;5092876;28;20591;-81
2021/11/09 07:35:37;;;;;;;13.90;8.35;;;;;;;;;;5092422;28;20565;-81
2021/11/09 07:38:06;;;;;;;14.32;7.80;;;;;;;;;;5078436;28;20277;-80
2021/11/09 07:40:33;;;;;;;13.73;8.43;;;;;;;;;;5084882;28;20639;-80
2021/11/09 07:43:00;;;;;;;15.18;7.90;;;;;;;;;;5094475;28;20205;-81
2021/11/09 07:45:28;;;;;;;16.45;7.85;;;;;;;;;;5086165;28;20538;-79
2021/11/09 07:47:58;;;;;;;13.20;7.43;;;;;;;;;;5098006;28;21559;-81
2021/11/09 07:50:25;;;;;;;17.08;7.95;;;;;;;;;;5107374;28;20220;-80
2021/11/09 07:52:57;;;;;;;16.42;7.43;;;;;;;;;;5112610;28;20307;-81
2021/11/09 07:55:26;;;;;;;12.90;7.80;;;;;;;;;;5112839;28;20188;-79
2021/11/09 07:57:58;;;;;;;14.07;6.80;;;;;;;;;;5106524;28;20189;-81
2021/11/09 08:00:33;;;;;;;15.63;7.95;;;;;;;;;;5091856;28;20193;-79
2021/11/09 08:03:06;;;;;;;14.90;7.85;;;;;;;;;;5094430;28;20193;-80
2021/11/09 08:05:36;;;;;;;14.38;7.70;;;;;;;;;;5094362;28;20194;-80
2021/11/09 08:08:07;;;;;;;12.90;7.40;;;;;;;;;;5093287;28;20275;-80
2021/11/09 08:10:36;;;;;;;14.52;7.35;;;;;;;;;;5096962;28;20717;-85
2021/11/09 08:13:03;;;;;;;14.30;6.95;;;;;;;;;;5090342;28;20219;-80
2021/11/09 08:15:31;;;;;;;15.07;7.70;;;;;;;;;;5075092;28;20553;-83
2021/11/09 08:18:02;;;;;;;15.23;7.53;;;;;;;;;;5073767;28;20190;-82
2021/11/09 08:20:29;;;;;;;14.32;8.45;;;;;;;;;;5092070;28;20197;-83
2021/11/09 08:22:56;;;;;;;10.48;6.28;;;;;;;;;;5085584;28;20225;-83
2021/11/09 08:25:24;;;;;;;11.10;6.20;;;;;;;;;;5098930;28;20749;-83
2021/11/09 08:27:52;;;;;;;18.10;7.32;;;;;;;;;;5090673;28;20196;-82
2021/11/09 08:30:19;;;;;;;11.32;7.05;;;;;;;;;;5095054;28;20221;-83
2021/11/09 08:32:48;;;;;;;14.55;6.88;;;;;;;;;;5096650;28;20594;-81
2021/11/09 08:35:21;;;;;;;16.27;7.85;;;;;;;;;;5092471;28;20284;-83
2021/11/09 08:37:50;;;;;;;14.50;7.80;;;;;;;;;;5090497;28;20208;-79
2021/11/09 08:40:19;;;;;;;14.75;7.57;;;;;;;;;;5091065;28;20217;-86
2021/11/09 08:42:49;;;;;;;16.33;7.93;;;;;;;;;;5089811;28;20626;-82
2021/11/09 08:45:26;;;;;;;14.45;7.38;;;;;;;;;;5092147;28;20204;-83
2021/11/09 08:47:58;;;;;;;12.60;7.95;;;;;;;;;;5093914;28;20197;-81
2021/11/09 08:50:26;;;;;;;12.52;7.18;;;;;;;;;;5093348;28;20243;-82
2021/11/09 08:52:55;;;;;;;14.02;8.73;;;;;;;;;;5093845;28;20217;-83
2021/11/09 08:55:38;;;;;;;17.15;8.55;;;;;;;;;;5096897;28;20195;-83
2021/11/09 09:06:10;;;;;;;11.77;7.53;;;;;;;;;;5091292;28;20689;-81
2021/11/09 09:08:37;;;;;;;13.25;7.80;;;;;;;;;;5074362;28;20458;-84
2021/11/09 09:11:05;;;;;;;16.73;8.45;;;;;;;;;;5072814;28;20709;-83
2021/11/09 09:13:32;;;;;;;17.80;8.32;;;;;;;;;;5073730;28;20194;-81
2021/11/09 09:16:01;;;;;;;16.33;7.70;;;;;;;;;;5089727;28;20203;-83
2021/11/09 09:18:28;;;;;;;13.60;6.77;;;;;;;;;;5096522;28;20684;-81
2021/11/09 09:20:58;;;;;;;26.85;9.38;;;;;;;;;;5085554;28;20529;-82
2021/11/09 09:23:30;;;;;;;16.80;7.93;;;;;;;;;;5071092;28;20244;-83
2021/11/09 09:26:09;;;;;;;20.13;7.93;;;;;;;;;;5070057;28;20463;-83
2021/11/09 09:28:59;;;;;;;16.57;8.77;;;;;;;;;;5081250;28;20238;-83
2021/11/09 09:31:46;;;;;;;15.33;8.73;;;;;;;;;;5093273;28;20837;-84
2021/11/09 09:53:14;;;;;;;16.33;8.20;;;;;;;;;;5095312;28;21003;-81
2021/11/09 09:55:41;;;;;;;14.67;8.20;;;;;;;;;;5095682;28;20443;-83
2021/11/09 09:58:10;;;;;;;14.50;7.37;;;;;;;;;;5096760;28;20535;-81
2021/11/09 10:00:38;;;;;;;13.53;7.90;;;;;;;;;;5098983;28;20521;-80
2021/11/09 10:03:08;;;;;;;10.73;7.60;;;;;;;;;;5100616;28;20533;-81
2021/11/09 10:05:37;;;;;;;10.80;6.93;;;;;;;;;;5094469;28;20447;-81
2021/11/09 10:08:10;;;;;;;20.93;8.23;;;;;;;;;;5094212;28;20935;-81
2021/11/09 10:10:38;;;;;;;14.57;8.03;;;;;;;;;;5094410;28;20501;-80
2021/11/09 10:13:08;;;;;;;11.83;7.70;;;;;;;;;;5094561;28;20958;-82
2021/11/09 10:15:36;;;;;;;15.60;8.20;;;;;;;;;;5095591;28;20458;-83
2021/11/09 10:18:06;;;;;;;13.97;8.47;;;;;;;;;;5096721;28;20532;-83
2021/11/09 10:20:36;;;;;;;12.60;8.40;;;;;;;;;;5097029;28;20450;-82
2021/11/09 10:23:05;;;;;;;14.83;8.00;;;;;;;;;;5099991;28;20534;-81
2021/11/09 10:25:35;;;;;;;15.53;7.73;;;;;;;;;;5098608;28;20418;-82
2021/11/09 10:28:05;;;;;;;19.53;8.13;;;;;;;;;;5092448;28;20448;-81
2021/11/09 10:30:33;;;;;;;10.00;7.60;;;;;;;;;;5095812;28;20618;-82
2021/11/09 10:33:01;;;;;;;11.73;7.93;;;;;;;;;;5094196;28;20454;-82
2021/11/09 10:35:28;;;;;;;12.63;7.80;;;;;;;;;;5092853;28;20794;-81
2021/11/09 10:37:58;;;;;;;16.67;7.90;;;;;;;;;;5095114;28;20475;-82
2021/11/09 10:40:26;;;;;;;14.33;6.50;;;;;;;;;;5096181;28;20443;-82
2021/11/09 10:42:54;;;;;;;12.47;7.93;;;;;;;;;;5095734;28;20461;-82
2021/11/09 10:45:23;;;;;;;14.93;8.00;;;;;;;;;;5099183;28;20455;-82
2021/11/09 10:47:52;;;;;;;12.20;8.43;;;;;;;;;;5100130;28;20491;-82
2021/11/09 10:50:22;;;;;;;11.67;7.50;;;;;;;;;;5113326;28;20513;-83
2021/11/09 10:52:50;;;;;;;11.90;7.80;;;;;;;;;;5113704;28;20463;-83
2021/11/09 10:55:23;;;;;;;15.00;8.00;;;;;;;;;;5113283;28;20540;-82
2021/11/09 10:57:57;;;;;;;15.10;7.40;;;;;;;;;;5112554;28;20442;-82
2021/11/09 11:03:28;;;;;;;13.37;7.30;;;;;;;;;;5082769;28;20428;-81
2021/11/09 11:06:09;;;;;;;19.13;7.00;;;;;;;;;;5096383;28;20430;-83
2021/11/09 11:08:36;;;;;;;14.80;7.40;;;;;;;;;;5099309;28;20431;-82
2021/11/09 11:11:16;;;;;;;12.23;5.67;;;;;;;;;;5094682;28;20991;-81
2021/11/09 11:13:43;;;;;;;7.57;5.30;;;;;;;;;;5092899;28;20525;-81
2021/11/09 11:16:11;;;;;;;10.63;6.73;;;;;;;;;;5093300;28;20435;-83
2021/11/09 11:18:41;;;;;;;10.30;5.27;;;;;;;;;;5093119;28;20800;-81
2021/11/09 11:21:09;;;;;;;8.10;6.07;;;;;;;;;;5093535;28;20822;-81
2021/11/09 11:23:37;;;;;;;14.43;6.83;;;;;;;;;;5095170;28;20431;-82
2021/11/09 11:26:05;;;;;;;11.03;6.10;;;;;;;;;;5094849;28;20455;-81
2021/11/09 11:28:35;;;;;;;14.33;6.10;;;;;;;;;;5096831;28;20441;-82
2021/11/09 11:31:03;;;;;;;13.27;5.80;;;;;;;;;;5098559;28;20484;-83
2021/11/09 11:33:30;;;;;;;8.67;6.13;;;;;;;;;;5083411;28;20976;-82
2021/11/09 11:35:58;;;;;;;6.60;4.73;;;;;;;;;;5072318;28;20977;-83
2021/11/09 11:38:25;;;;;;;13.93;5.50;;;;;;;;;;5050693;28;20436;-81
2021/11/09 11:40:56;;;;;;;10.53;5.20;;;;;;;;;;5069066;28;20462;-82
2021/11/09 11:43:38;;;;;;;7.70;4.67;;;;;;;;;;5075486;28;20466;-84
2021/11/09 11:46:07;;;;;;;8.63;3.90;;;;;;;;;;5093717;28;20432;-80
2021/11/09 11:48:57;;;;;;;7.23;4.33;;;;;;;;;;5091659;28;20440;-80
2021/11/09 11:51:24;;;;;;;10.30;3.63;;;;;;;;;;5078007;28;20638;-80
2021/11/09 11:53:54;;;;;;;8.40;3.67;;;;;;;;;;5078667;28;20444;-78
2021/11/09 11:56:21;;;;;;;9.03;4.40;;;;;;;;;;5083801;28;20828;-80
2021/11/09 11:58:48;;;;;;;7.20;4.03;;;;;;;;;;5075387;28;20822;-83
2021/11/09 12:01:38;;;;;;;8.30;4.20;;;;;;;;;;5070010;28;20460;-81
2021/11/09 12:04:09;;;;;;;4.70;3.60;;;;;;;;;;5070577;28;20913;-80
2021/11/09 12:06:50;;;;;;;8.30;3.50;;;;;;;;;;5076686;28;20446;-78
2021/11/09 12:09:29;;;;;;;13.63;4.33;;;;;;;;;;5093452;28;20469;-80
2021/11/09 12:11:56;;;;;;;6.00;2.83;;;;;;;;;;5089146;28;20487;-79
2021/11/09 12:14:24;;;;;;;6.50;3.83;;;;;;;;;;5083815;28;20813;-80
2021/11/09 12:16:55;;;;;;;8.23;3.77;;;;;;;;;;5102437;28;20459;-79
2021/11/09 12:19:40;;;;;;;6.00;3.53;;;;;;;;;;5094308;28;20438;-81
2021/11/09 12:22:08;;;;;;;6.80;3.40;;;;;;;;;;5089272;28;20553;-78
2021/11/09 12:24:45;;;;;;;6.93;3.10;;;;;;;;;;5093889;28;20450;-81
2021/11/09 12:27:13;;;;;;;6.97;3.20;;;;;;;;;;5104688;28;20499;-80
2021/11/09 12:29:43;;;;;;;6.67;3.90;;;;;;;;;;5088780;28;20480;-81
2021/11/09 12:32:25;;;;;;;7.57;4.00;;;;;;;;;;5083068;28;20975;-79
2021/11/09 12:34:58;;;;;;;4.93;3.70;;;;;;;;;;5088026;28;20855;-79
2021/11/09 12:37:25;;;;;;;6.70;3.70;;;;;;;;;;5083568;28;20450;-80
2021/11/09 12:39:53;;;;;;;8.13;3.20;;;;;;;;;;5095414;28;20460;-81
2021/11/09 12:42:20;;;;;;;7.30;3.80;;;;;;;;;;5092982;28;20472;-80
2021/11/09 12:44:47;;;;;;;8.20;3.30;;;;;;;;;;5088932;28;20465;-82
2021/11/09 12:47:14;;;;;;;7.23;3.70;;;;;;;;;;5071502;28;20924;-82
2021/11/09 12:49:43;;;;;;;9.00;3.27;;;;;;;;;;5070718;28;20506;-79
2021/11/09 12:52:12;;;;;;;8.03;2.90;;;;;;;;;;5069826;28;20499;-82
2021/11/09 12:54:39;;;;;;;6.70;2.70;;;;;;;;;;5084021;28;20483;-82
2021/11/09 12:57:08;;;;;;;7.60;3.77;;;;;;;;;;5093355;28;20522;-80
2021/11/09 12:59:40;;;;;;;5.77;3.27;;;;;;;;;;5090347;28;20534;-82
2021/11/09 13:02:13;;;;;;;7.93;3.37;;;;;;;;;;5087562;28;20475;-81
2021/11/09 13:04:48;;;;;;;9.00;3.13;;;;;;;;;;5090701;28;20439;-81
2021/11/09 13:07:21;;;;;;;5.50;3.10;;;;;;;;;;5088883;28;20866;-80
2021/11/09 13:09:49;;;;;;;4.30;3.10;;;;;;;;;;5091967;28;20455;-81
2021/11/09 13:12:18;;;;;;;6.40;3.50;;;;;;;;;;5092323;28;20480;-81
2021/11/09 13:14:46;;;;;;;10.00;3.50;;;;;;;;;;5083889;28;20436;-82
2021/11/09 13:17:14;;;;;;;13.70;3.03;;;;;;;;;;5082193;28;20496;-82
2021/11/09 13:19:43;;;;;;;8.70;2.90;;;;;;;;;;5094179;28;20434;-80
2021/11/09 13:22:12;;;;;;;8.17;3.27;;;;;;;;;;5111305;28;20458;-81
2021/11/09 13:24:41;;;;;;;6.63;3.40;;;;;;;;;;5112349;28;20452;-81
2021/11/09 13:27:11;;;;;;;4.47;2.80;;;;;;;;;;5094145;28;20439;-81
2021/11/09 13:29:40;;;;;;;6.30;3.30;;;;;;;;;;5091905;28;20521;-82
2021/11/09 13:32:08;;;;;;;5.37;3.30;;;;;;;;;;5087486;28;20551;-81
2021/11/09 13:34:35;;;;;;;7.57;2.53;;;;;;;;;;5076567;28;20440;-81
2021/11/09 13:37:02;;;;;;;7.17;3.60;;;;;;;;;;5076472;28;20446;-81
2021/11/09 13:39:30;;;;;;;6.57;2.97;;;;;;;;;;5085060;28;20932;-81
2021/11/09 13:41:58;;;;;;;7.03;3.00;;;;;;;;;;5095442;28;20467;-80
2021/11/09 13:44:31;;;;;;;6.03;3.50;;;;;;;;;;5094687;28;20531;-83
2021/11/09 13:46:59;;;;;;;3.87;2.70;;;;;;;;;;5073294;28;20781;-81
2021/11/09 13:49:26;;;;;;;6.23;3.20;;;;;;;;;;5080954;28;20880;-83
2021/11/09 13:52:02;;;;;;;8.40;3.30;;;;;;;;;;5077577;28;20923;-80
2021/11/09 13:54:40;;;;;;;4.77;2.47;;;;;;;;;;5082769;28;20810;-82
2021/11/09 13:57:09;;;;;;;3.97;3.07;;;;;;;;;;5097180;28;20475;-82
2021/11/09 13:59:38;;;;;;;5.47;3.03;;;;;;;;;;5095893;28;20447;-81
2021/11/09 14:02:19;;;;;;;5.07;2.70;;;;;;;;;;5090434;28;20474;-81
2021/11/09 14:05:11;;;;;;;6.20;2.83;;;;;;;;;;5076336;28;20439;-80
2021/11/09 14:07:44;;;;;;;4.50;3.03;;;;;;;;;;5073344;28;20437;-82
2021/11/09 14:10:34;;;;;;;5.30;2.50;;;;;;;;;;5082859;28;20925;-81
2021/11/09 14:13:18;;;;;;;4.60;2.00;;;;;;;;;;5098642;28;20865;-81
2021/11/09 14:16:02;;;;;;;6.80;3.07;;;;;;;;;;5078584;28;20525;-80
2021/11/09 14:18:29;;;;;;;4.07;2.37;;;;;;;;;;5074082;28;20559;-80
2021/11/09 14:20:58;;;;;;;6.20;2.90;;;;;;;;;;5074632;28;20487;-80
2021/11/09 14:23:29;;;;;;;5.37;2.60;;;;;;;;;;5072015;28;20448;-82
2021/11/09 14:25:58;;;;;;;4.07;2.90;;;;;;;;;;5084380;28;20466;-80
2021/11/09 14:28:33;;;;;;;6.67;2.60;;;;;;;;;;5096552;28;20427;-81
2021/11/09 14:31:12;;;;;;;2.87;2.60;;;;;;;;;;5105879;28;20623;-81
2021/11/09 14:33:39;;;;;;;4.93;2.60;;;;;;;;;;5093146;28;20486;-82
2021/11/09 14:36:21;;;;;;;4.27;2.77;;;;;;;;;;5093717;28;20474;-83
2021/11/09 14:38:52;;;;;;;4.70;3.10;;;;;;;;;;5093746;28;20435;-81
2021/11/09 14:41:25;;;;;;;3.90;2.90;;;;;;;;;;5079592;28;20842;-81
2021/11/09 14:43:59;;;;;;;7.67;3.10;;;;;;;;;;5097345;28;20451;-82
2021/11/09 14:46:37;;;;;;;8.60;3.00;;;;;;;;;;5103906;28;20438;-81
2021/11/09 14:49:09;;;;;;;6.43;2.57;;;;;;;;;;5113294;28;20827;-80
2021/11/09 14:51:37;;;;;;;7.30;3.00;;;;;;;;;;5089549;22;20516;-82
2021/11/09 14:54:15;;;;;;;5.40;3.00;;;;;;;;;;5030873;28;20524;-82
2021/11/09 14:56:42;;;;;;;3.43;2.03;;;;;;;;;;5033621;28;20488;-81
2021/11/09 14:59:10;;;;;;;4.90;2.57;;;;;;;;;;5036698;28;20451;-82
2021/11/09 15:01:40;;;;;;;7.00;2.87;;;;;;;;;;5035519;28;20492;-80
2021/11/09 15:04:13;;;;;;;4.20;2.60;;;;;;;;;;5029155;28;20482;-80
2021/11/09 15:06:51;;;;;;;3.10;2.50;;;;;;;;;;5032632;28;20438;-87
2021/11/09 15:12:12;;;;;;;9.23;4.03;;;;;;;;;;5036815;28;20484;-82
2021/11/09 15:25:40;;;;;;;9.00;3.63;;;;;;;;;;5023627;28;20435;-82
2021/11/09 15:28:13;;;;;;;6.53;3.57;;;;;;;;;;5031233;28;20460;-83
2021/11/09 15:30:44;;;;;;;5.10;2.93;;;;;;;;;;5024867;28;20803;-82
2021/11/09 15:33:20;;;;;;;5.43;3.10;;;;;;;;;;5031801;28;20492;-84
2021/11/09 15:36:06;;;;;;;6.27;4.00;;;;;;;;;;5037862;28;20516;-79
2021/11/09 15:38:33;;;;;;;5.50;3.67;;;;;;;;;;5038148;28;20516;-85
2021/11/09 15:41:01;;;;;;;4.67;3.33;;;;;;;;;;5038086;28;20506;-85
2021/11/09 15:43:29;;;;;;;5.80;3.40;;;;;;;;;;5034540;28;20791;-85
2021/11/09 15:45:56;;;;;;;6.80;3.33;;;;;;;;;;5050293;28;20442;-84
2021/11/09 15:48:25;;;;;;;4.53;3.87;;;;;;;;;;5050657;28;20858;-86
2021/11/09 15:50:53;;;;;;;8.57;4.17;;;;;;;;;;5011129;28;20819;-84
2021/11/09 15:53:20;;;;;;;6.20;3.93;;;;;;;;;;5015096;28;20487;-82
2021/11/09 15:55:47;;;;;;;5.23;3.60;;;;;;;;;;5031393;28;20465;-81
2021/11/09 15:58:16;;;;;;;7.10;3.03;;;;;;;;;;5033345;28;20438;-85
2021/11/09 16:00:46;;;;;;;5.10;3.63;;;;;;;;;;5033106;28;20453;-84
2021/11/09 16:03:13;;;;;;;6.33;3.83;;;;;;;;;;5036242;28;20438;-86
2021/11/09 16:05:42;;;;;;;6.77;4.17;;;;;;;;;;5024879;28;20446;-84
2021/11/09 16:08:09;;;;;;;12.60;4.33;;;;;;;;;;5030420;28;20871;-85
2021/11/09 16:10:38;;;;;;;8.13;3.70;;;;;;;;;;5030853;28;20537;-81
2021/11/09 16:13:07;;;;;;;11.13;3.20;;;;;;;;;;5026111;28;20490;-84
2021/11/09 16:15:35;;;;;;;7.20;4.10;;;;;;;;;;5027438;28;20544;-83
2021/11/09 16:18:02;;;;;;;7.60;3.90;;;;;;;;;;5038976;28;20429;-83
2021/11/09 16:20:30;;;;;;;7.83;4.00;;;;;;;;;;5034303;28;20493;-82
2021/11/09 16:22:59;;;;;;;7.10;4.00;;;;;;;;;;5030216;28;20469;-83
2021/11/09 16:25:27;;;;;;;6.90;4.50;;;;;;;;;;5030914;28;20491;-82
2021/11/09 16:27:54;;;;;;;8.10;4.10;;;;;;;;;;5030386;28;20438;-84
2021/11/09 16:30:22;;;;;;;9.13;4.60;;;;;;;;;;5013904;28;20836;-81
2021/11/09 16:32:51;;;;;;;7.07;4.40;;;;;;;;;;5031363;28;20490;-81
2021/11/09 16:35:25;;;;;;;6.40;4.17;;;;;;;;;;5016801;28;20485;-80